»·PEaware :: DAL7674 KWYS-KSLC

DAL7674 :: KWYS-KSLC

FLIGHT INFORMATION

Flight Status: Arrived
Operator:
Delta Air Lines
More flights by this operator :: More flights under this callsign
Pilot: Skye D. (10623)
Aircraft: BOEING 737-300
(B733)
More flights by this aircraft type
Origin: KWYS Yellowstone
United States
Destination: KSLC Salt Lake City Intl
United States
More flights between these airports :: More routes between these airports
Route: +LO DBS NORDK5
File this flight plan on PilotEdge
Remarks:
Altitude:
(Current/Filed)
31,000ft
Speed:
(Current/Filed)
432kts
Departed: 14-Nov-17 10:46 AM
Arrived: 14-Nov-17 11:48 AM
Distance/Time
Traveled:
237nm/1:02
Distance/Time
To Go:
Arrived

Flight Plot

Page will automatically refresh every two minutes.

Flight plan parsing failed; only flown route is shown


Map Options




Map Legend


Flown Route
Filed Route
Departure Airport
Arrival Airport
Navaid (VOR, NDB)
Fix

Horizontal Profiles

Position Reports

Time Latitude Longitude Heading Altitude Ground
Speed
14-Nov-17 10:30 44.685757 -111.116114 94 6651ft 0kts
14-Nov-17 10:31 44.685757 -111.116114 94 6651ft 0kts
14-Nov-17 10:32 44.685757 -111.116114 94 6651ft 0kts
14-Nov-17 10:33 44.685757 -111.116114 94 6651ft 0kts
14-Nov-17 10:34 44.685757 -111.116114 94 6651ft 0kts
14-Nov-17 10:35 44.685757 -111.116114 94 6651ft 0kts
14-Nov-17 10:36 44.685757 -111.116114 94 6651ft 0kts
14-Nov-17 10:37 44.685757 -111.116114 94 6651ft 0kts
14-Nov-17 10:38 44.685757 -111.116114 94 6651ft 0kts
14-Nov-17 10:39 44.685757 -111.116114 94 6651ft 0kts
14-Nov-17 10:40 44.685757 -111.116114 94 6651ft 0kts
14-Nov-17 10:41 44.685757 -111.116114 94 6651ft 0kts
14-Nov-17 10:42 44.685757 -111.116114 94 6651ft 0kts
14-Nov-17 10:43 44.685757 -111.116114 94 6651ft 0kts
14-Nov-17 10:44 44.685757 -111.116114 94 6651ft 0kts
14-Nov-17 10:45 44.686279 -111.115942 358 6651ft 5kts
14-Nov-17 10:46 44.688329 -111.116000 25 6651ft 13kts
14-Nov-17 10:47 44.690959 -111.114206 27 6651ft 16kts
14-Nov-17 10:48 44.695672 -111.110920 26 6651ft 19kts
14-Nov-17 10:49 44.698075 -111.109429 340 6651ft 3kts
14-Nov-17 10:50 44.698400 -111.110727 205 6651ft 0kts
14-Nov-17 10:51 44.685399 -111.119729 207 6732ft 143kts
14-Nov-17 10:52 44.649146 -111.137014 199 8787ft 148kts
14-Nov-17 10:53 44.609180 -111.156271 211 10356ft 179kts
14-Nov-17 10:54 44.572962 -111.206258 232 11846ft 212kts
14-Nov-17 10:55 44.543128 -111.267930 241 13243ft 234kts
14-Nov-17 10:56 44.505613 -111.350677 239 14283ft 296kts
14-Nov-17 10:57 44.461017 -111.444431 238 15735ft 329kts
14-Nov-17 10:58 44.412393 -111.545592 239 18158ft 329kts
14-Nov-17 10:59 44.363135 -111.647664 240 20117ft 335kts
14-Nov-17 11:00 44.315423 -111.747673 239 21875ft 340kts
14-Nov-17 11:01 44.264737 -111.852173 239 23465ft 347kts
14-Nov-17 11:02 44.211821 -111.960652 240 24985ft 353kts
14-Nov-17 11:03 44.158592 -112.069343 240 26351ft 358kts
14-Nov-17 11:04 44.103826 -112.178755 231 27557ft 368kts
14-Nov-17 11:05 44.000666 -112.189177 175 28473ft 438kts
14-Nov-17 11:06 43.889318 -112.157239 180 29855ft 427kts
14-Nov-17 11:07 43.778505 -112.128598 180 31031ft 424kts
14-Nov-17 11:08 43.671467 -112.100840 181 31205ft 418kts
14-Nov-17 11:09 43.562597 -112.073224 181 31203ft 420kts
14-Nov-17 11:10 43.456515 -112.046152 181 31202ft 420kts
14-Nov-17 11:11 43.345868 -112.018023 181 31202ft 420kts
14-Nov-17 11:12 43.234713 -111.989865 181 31205ft 419kts
14-Nov-17 11:13 43.125426 -111.962288 182 31199ft 417kts
14-Nov-17 11:14 43.015784 -111.934718 182 31225ft 417kts
14-Nov-17 11:15 42.906475 -111.907338 182 31259ft 418kts
14-Nov-17 11:16 42.800058 -111.880749 181 28588ft 414kts
14-Nov-17 11:17 42.691374 -111.856804 194 26424ft 379kts
14-Nov-17 11:18 42.598036 -111.872404 197 24398ft 379kts
14-Nov-17 11:19 42.497006 -111.889807 197 24254ft 389kts
14-Nov-17 11:20 42.394643 -111.907599 197 24265ft 389kts
14-Nov-17 11:21 42.291575 -111.925238 197 24266ft 389kts
14-Nov-17 11:22 42.190519 -111.942432 198 24270ft 383kts
14-Nov-17 11:23 42.088451 -111.959817 198 24267ft 384kts
14-Nov-17 11:24 41.988007 -111.976008 198 23200ft 365kts
14-Nov-17 11:25 41.896332 -111.991729 198 23376ft 366kts
14-Nov-17 11:26 41.802582 -112.006718 199 23475ft 340kts
14-Nov-17 11:27 41.706175 -112.022460 198 22470ft 365kts
14-Nov-17 11:28 41.611921 -112.037703 197 20493ft 360kts
14-Nov-17 11:29 41.525870 -112.051588 196 19314ft 352kts
14-Nov-17 11:30 41.436187 -112.069121 198 18595ft 357kts
14-Nov-17 11:31 41.348262 -112.088167 197 17128ft 347kts
14-Nov-17 11:32 41.260975 -112.107005 196 15598ft 338kts
14-Nov-17 11:33 41.178694 -112.124650 196 14809ft 301kts
14-Nov-17 11:34 41.112180 -112.138917 197 14517ft 244kts
14-Nov-17 11:35 41.052543 -112.142155 179 14301ft 250kts
14-Nov-17 11:36 40.992219 -112.128909 178 12927ft 242kts
14-Nov-17 11:37 40.935906 -112.116755 177 11814ft 245kts
14-Nov-17 11:38 40.883319 -112.107136 181 11009ft 239kts
14-Nov-17 11:39 40.830495 -112.100993 180 11085ft 244kts
14-Nov-17 11:40 40.777136 -112.092373 171 10839ft 250kts
14-Nov-17 11:41 40.722958 -112.074628 170 9773ft 245kts
14-Nov-17 11:42 40.664539 -112.058181 171 8969ft 242kts
14-Nov-17 11:43 40.605225 -112.041514 171 8992ft 244kts
14-Nov-17 11:44 40.560224 -112.002532 99 7985ft 251kts
14-Nov-17 11:45 40.585528 -111.958611 347 7101ft 202kts
14-Nov-17 11:46 40.620500 -111.976875 342 7008ft 182kts
14-Nov-17 11:47 40.657962 -111.982452 352 6593ft 164kts
14-Nov-17 11:48 40.689545 -111.985582 351 5931ft 146kts
14-Nov-17 11:49 40.717817 -111.988836 350 5442ft 139kts
14-Nov-17 11:50 40.744161 -111.991920 350 4923ft 143kts
14-Nov-17 11:51 40.771405 -111.995012 351 4356ft 140kts
14-Nov-17 11:52 40.792750 -111.997463 3 4234ft 45kts
14-Nov-17 11:53 40.794535 -111.995565 159 4234ft 7kts
14-Nov-17 11:54 40.793105 -111.995308 174 4234ft 0kts
14-Nov-17 11:55 40.792658 -111.995260 175 4234ft 10kts
14-Nov-17 11:56 40.791046 -111.993058 87 4234ft 14kts
14-Nov-17 11:57 40.791349 -111.988643 84 4234ft 15kts
14-Nov-17 11:58 40.789577 -111.986748 98 4234ft 14kts
14-Nov-17 11:59 40.789285 -111.985240 103 4234ft 0kts
14-Nov-17 12:00 40.789285 -111.985240 103 4234ft 0kts

Navigation Log

Ident Type
Flight plan parsing failed, navigation log unavailable